Omskiy-107 — UBWE3 — position and weather

sailwx.info

Track history (hours):
 
Tides and Currents Weather Stations Pressure Air Temp Water Temp Dewpoint Dewpoint Depression Visibility Wind Speed Wind Dir Waves Ship Positions

Omskiy-107

Last reported at 2015-Apr-20 06:22 UTC. Time now 2015-Apr-22 03:47 UTC.
Position N 40°58' E 028°58'.

Length 108 m; draft 3.4 m.

Type: Cargo ship. MMSI: 273343220.

Date/timePositionNaut miles runAvg speedWind from/ knotsBaromVisibWave heightAir tempDewpointWater temp
2015-Apr-20 06:22N 40°58' E 028°58'300 7.3
2015-Apr-18 13:28N 44°17' E 034°02'5 5.0
2015-Apr-18 12:31N 44°20' E 034°08'5 4.9
2015-Apr-18 11:33N 44°23' E 034°13'5 4.6
2015-Apr-18 10:34N 44°25' E 034°19'4 4.1
2015-Apr-18 09:34N 44°27' E 034°24'4 4.4
2015-Apr-18 08:34N 44°30' E 034°29'5 5.1
2015-Apr-18 07:34N 44°33' E 034°35'6 5.7
2015-Apr-18 06:33N 44°36' E 034°41'6 5.7
2015-Apr-18 05:33N 44°39' E 034°48'5 5.3
2015-Apr-18 04:34N 44°42' E 034°54'12 5.5
2015-Apr-18 02:26N 44°46' E 035°09'6 5.3
2015-Apr-18 01:17N 44°47' E 035°18'29 5.1
2015-Apr-17 19:34N 44°54' E 035°58'5 5.3
2015-Apr-17 18:34N 44°55' E 036°05'7 6.8
2015-Apr-17 17:30N 44°56' E 036°15'  
Track history (hours):
 
Tides and Currents Weather Stations Pressure Air Temp Water Temp Dewpoint Dewpoint Depression Visibility Wind Speed Wind Dir Waves Ship Positions

Omskiy-107

Last reported at 2015-Apr-20 06:22 UTC. Time now 2015-Apr-22 03:47 UTC.
Position N 40°58' E 028°58'.

Length 108 m; draft 3.4 m.

Type: Cargo ship. MMSI: 273343220.

Date/timePositionNaut miles runAvg speedWind from/ knotsBaromVisibWave heightAir tempDewpointWater temp
2015-Apr-20 06:22N 40°58' E 028°58'300 7.3
2015-Apr-18 13:28N 44°17' E 034°02'5 5.0
2015-Apr-18 12:31N 44°20' E 034°08'5 4.9
2015-Apr-18 11:33N 44°23' E 034°13'5 4.6
2015-Apr-18 10:34N 44°25' E 034°19'4 4.1
2015-Apr-18 09:34N 44°27' E 034°24'4 4.4
2015-Apr-18 08:34N 44°30' E 034°29'5 5.1
2015-Apr-18 07:34N 44°33' E 034°35'6 5.7
2015-Apr-18 06:33N 44°36' E 034°41'6 5.7
2015-Apr-18 05:33N 44°39' E 034°48'5 5.3
2015-Apr-18 04:34N 44°42' E 034°54'12 5.5
2015-Apr-18 02:26N 44°46' E 035°09'6 5.3
2015-Apr-18 01:17N 44°47' E 035°18'29 5.1
2015-Apr-17 19:34N 44°54' E 035°58'5 5.3
2015-Apr-17 18:34N 44°55' E 036°05'7 6.8
2015-Apr-17 17:30N 44°56' E 036°15'  

Dump ship's entire track history